createdAt,value
2023-01-28T00:00:25.253Z,1.64
2023-01-28T00:04:53.357Z,1.65
2023-01-28T00:09:22.861Z,1.67
2023-01-28T00:13:50.662Z,1.66
2023-01-28T00:18:20.535Z,1.69
2023-01-28T00:48:53.415Z,1.55
2023-01-28T00:53:22.570Z,1.49
2023-01-28T00:57:50.772Z,1.47
2023-01-28T01:02:21.449Z,1.53
2023-01-28T01:06:39.591Z,1.53
2023-01-28T01:27:39.081Z,1.64
2023-01-28T01:32:08.429Z,1.63
2023-01-28T01:36:23.929Z,1.64
2023-01-28T02:06:53.164Z,1.76
2023-01-28T02:11:22.341Z,1.74
2023-01-28T02:15:41.196Z,1.72
2023-01-28T02:19:53.308Z,1.68
2023-01-28T02:28:31.351Z,1.72
2023-01-28T02:33:18.828Z,1.75
2023-01-28T02:37:57.121Z,1.78
2023-01-28T02:42:39.636Z,1.80
2023-01-28T03:08:29.578Z,1.79
2023-01-28T03:12:39.744Z,1.73
2023-01-28T03:17:07.080Z,1.72
2023-01-28T03:21:46.458Z,1.70
2023-01-28T03:26:14.053Z,1.70
2023-01-28T03:30:31.611Z,1.71
2023-01-28T03:34:42.257Z,1.67
2023-01-28T03:39:19.016Z,1.64
2023-01-28T05:27:05.585Z,1.71
2023-01-28T05:31:34.554Z,1.70
2023-01-28T05:35:49.803Z,1.70
2023-01-28T05:40:02.228Z,1.71
2023-01-28T05:44:03.988Z,1.71
2023-01-28T05:48:33.218Z,1.72
2023-01-28T06:17:50.035Z,1.75
2023-01-28T06:22:12.151Z,1.75
2023-01-28T06:26:26.626Z,1.72
2023-01-28T06:30:30.030Z,1.72
2023-01-28T06:34:06.432Z,1.71
2023-01-28T06:37:40.102Z,1.72
2023-01-28T06:41:31.592Z,1.72
2023-01-28T06:45:38.689Z,1.71
2023-01-28T06:49:50.682Z,1.71
2023-01-28T06:54:01.893Z,1.72
2023-01-28T06:57:55.093Z,1.71
2023-01-28T07:01:46.624Z,1.74
2023-01-28T07:05:26.644Z,1.72
2023-01-28T07:09:31.124Z,1.73
2023-01-28T07:13:29.868Z,1.72
2023-01-28T07:17:42.622Z,1.70
2023-01-28T07:22:04.054Z,1.72
2023-01-28T07:26:08.575Z,1.74
2023-01-28T07:30:08.070Z,1.76
2023-01-28T07:33:54.099Z,1.79
2023-01-28T08:10:51.704Z,1.98
2023-01-28T08:15:00.787Z,1.96
2023-01-28T08:36:16.765Z,2.27
2023-01-28T08:40:46.243Z,2.24
2023-01-28T08:45:13.003Z,2.16
2023-01-28T08:49:31.767Z,2.14
2023-01-28T08:53:54.377Z,2.12
2023-01-28T08:58:03.414Z,2.11
2023-01-28T09:48:53.938Z,2.67
2023-01-28T09:53:14.699Z,2.76
2023-01-28T09:57:46.936Z,2.79
2023-01-28T10:02:35.390Z,2.83
2023-01-28T10:20:17.737Z,3.22
2023-01-28T10:24:40.138Z,3.32
2023-01-28T10:45:15.826Z,3.65
2023-01-28T10:50:01.207Z,3.68
2023-01-28T10:54:36.107Z,3.66
2023-01-28T10:59:05.583Z,3.58
2023-01-28T11:03:27.675Z,3.54
2023-01-28T11:07:59.642Z,3.54
2023-01-28T11:25:46.577Z,3.50
2023-01-28T11:38:52.030Z,3.66
2023-01-28T11:43:21.380Z,3.74
2023-01-28T11:47:46.360Z,3.79
2023-01-28T12:41:44.743Z,3.54
2023-01-28T12:46:25.921Z,3.62
2023-01-28T12:50:55.613Z,3.66
2023-01-28T12:55:22.877Z,3.69
2023-01-28T12:59:56.507Z,3.77
2023-01-28T13:21:34.643Z,4.04
2023-01-28T13:26:10.194Z,4.07
2023-01-28T13:30:41.198Z,4.11
2023-01-28T13:35:13.413Z,4.11
2023-01-28T13:39:55.537Z,4.11
2023-01-28T14:00:48.078Z,4.27
2023-01-28T14:05:30.233Z,4.25
2023-01-28T14:09:31.895Z,4.26
2023-01-28T14:14:19.206Z,4.27
2023-01-28T14:18:44.040Z,4.24
2023-01-28T14:23:01.344Z,4.16
2023-01-28T14:27:49.960Z,4.06
2023-01-28T15:29:47.497Z,2.75
2023-01-28T15:34:09.790Z,2.62
2023-01-28T15:55:52.616Z,2.33
2023-01-28T16:00:29.487Z,2.26
2023-01-28T16:05:04.995Z,2.15
2023-01-28T16:09:37.018Z,2.01
2023-01-28T16:14:08.687Z,1.87
2023-01-28T16:18:31.964Z,1.70
2023-01-28T16:36:08.390Z,1.19
2023-01-28T16:40:39.121Z,1.07
2023-01-28T17:03:25.613Z,0.71
2023-01-28T17:07:55.255Z,0.64
2023-01-28T17:12:16.560Z,0.62
2023-01-28T17:33:48.570Z,0.86
2023-01-28T17:38:19.219Z,0.92
2023-01-28T17:42:41.056Z,0.96
2023-01-28T17:59:47.199Z,1.01
2023-01-28T18:04:16.474Z,0.96
2023-01-28T18:08:46.283Z,0.89
2023-01-28T18:13:15.663Z,0.86
2023-01-28T18:31:39.801Z,0.90
2023-01-28T18:35:43.703Z,0.87
2023-01-28T18:40:13.201Z,0.85
2023-01-28T18:44:34.236Z,0.80
2023-01-28T19:10:25.701Z,0.42
2023-01-28T19:14:47.053Z,0.34
2023-01-28T19:19:19.156Z,0.27
2023-01-28T19:23:50.161Z,0.21
2023-01-28T19:32:11.918Z,0.16
2023-01-28T19:36:41.548Z,0.04
2023-01-28T19:41:11.549Z,-0.01
2023-01-28T19:51:50.009Z,0.04
2023-01-28T19:56:19.542Z,-0.01
2023-01-28T20:00:53.277Z,-0.07
2023-01-28T20:19:30.768Z,-0.07
2023-01-28T20:24:00.320Z,-0.08
2023-01-28T20:28:20.912Z,-0.08
2023-01-28T20:49:27.163Z,-0.14
2023-01-28T20:53:57.814Z,-0.18
2023-01-28T20:58:28.103Z,-0.16
2023-01-28T21:02:54.881Z,-0.12
2023-01-28T21:27:04.651Z,0.28
2023-01-28T21:31:14.749Z,0.33
2023-01-28T21:39:32.343Z,0.44
2023-01-28T21:44:02.140Z,0.48
2023-01-28T21:48:24.550Z,0.54
2023-01-28T22:12:22.749Z,0.87
2023-01-28T22:16:53.261Z,0.87
2023-01-28T22:42:52.760Z,0.84
2023-01-28T22:47:22.251Z,0.79
2023-01-28T22:52:00.262Z,0.77
2023-01-28T22:56:31.747Z,0.73
2023-01-28T23:22:20.617Z,0.44
2023-01-28T23:26:49.935Z,0.44
2023-01-28T23:31:20.550Z,0.47
2023-01-28T23:48:40.682Z,0.65
2023-01-28T23:53:09.854Z,0.67
2023-01-28T23:57:38.974Z,0.71
